sensor_id;sensor_type;location;lat;lon;timestamp;pressure;altitude;pressure_sealevel;temperature;humidity
16544;BME280;8384;47.996;7.786;2023-05-13T00:00:27;98654.75;;;11.01;100.00
16544;BME280;8384;47.996;7.786;2023-05-13T00:02:53;98645.53;;;11.13;100.00
16544;BME280;8384;47.996;7.786;2023-05-13T00:05:18;98655.88;;;11.05;100.00
16544;BME280;8384;47.996;7.786;2023-05-13T00:07:43;98643.25;;;10.94;100.00
16544;BME280;8384;47.996;7.786;2023-05-13T00:10:09;98664.47;;;10.71;100.00
16544;BME280;8384;47.996;7.786;2023-05-13T00:12:34;98661.47;;;10.35;100.00
16544;BME280;8384;47.996;7.786;2023-05-13T00:14:59;98641.66;;;10.17;100.00
16544;BME280;8384;47.996;7.786;2023-05-13T00:17:25;98671.50;;;10.24;100.00
16544;BME280;8384;47.996;7.786;2023-05-13T00:19:50;98644.97;;;10.19;100.00
16544;BME280;8384;47.996;7.786;2023-05-13T00:22:15;98658.16;;;10.33;100.00
16544;BME280;8384;47.996;7.786;2023-05-13T00:24:40;98647.69;;;10.19;100.00
16544;BME280;8384;47.996;7.786;2023-05-13T00:27:06;98644.41;;;10.23;100.00
16544;BME280;8384;47.996;7.786;2023-05-13T00:29:31;98659.03;;;10.39;100.00
16544;BME280;8384;47.996;7.786;2023-05-13T00:31:56;98659.53;;;10.30;100.00
16544;BME280;8384;47.996;7.786;2023-05-13T00:34:21;98657.34;;;10.32;100.00
16544;BME280;8384;47.996;7.786;2023-05-13T00:36:47;98642.19;;;10.14;100.00
16544;BME280;8384;47.996;7.786;2023-05-13T00:39:12;98647.25;;;10.00;100.00
16544;BME280;8384;47.996;7.786;2023-05-13T00:41:37;98660.97;;;10.05;100.00
16544;BME280;8384;47.996;7.786;2023-05-13T00:44:03;98650.84;;;10.06;100.00
16544;BME280;8384;47.996;7.786;2023-05-13T00:46:31;98659.75;;;10.29;100.00
16544;BME280;8384;47.996;7.786;2023-05-13T00:48:58;98636.44;;;10.48;100.00
16544;BME280;8384;47.996;7.786;2023-05-13T00:51:23;98628.00;;;10.17;100.00
16544;BME280;8384;47.996;7.786;2023-05-13T00:53:49;98654.91;;;10.36;100.00
16544;BME280;8384;47.996;7.786;2023-05-13T00:56:20;98657.25;;;10.55;100.00
16544;BME280;8384;47.996;7.786;2023-05-13T00:58:48;98646.59;;;10.53;100.00
16544;BME280;8384;47.996;7.786;2023-05-13T01:01:37;98647.19;;;10.28;100.00
16544;BME280;8384;47.996;7.786;2023-05-13T01:04:30;98639.31;;;10.36;100.00
16544;BME280;8384;47.996;7.786;2023-05-13T01:09:59;98641.81;;;10.38;100.00
16544;BME280;8384;47.996;7.786;2023-05-13T01:12:35;98650.09;;;10.43;100.00
16544;BME280;8384;47.996;7.786;2023-05-13T01:15:07;98634.09;;;10.30;100.00
16544;BME280;8384;47.996;7.786;2023-05-13T01:17:53;98662.09;;;10.47;100.00
16544;BME280;8384;47.996;7.786;2023-05-13T01:20:20;98665.22;;;10.29;100.00
16544;BME280;8384;47.996;7.786;2023-05-13T01:22:46;98652.31;;;9.59;100.00
16544;BME280;8384;47.996;7.786;2023-05-13T01:25:11;98661.00;;;9.56;100.00
16544;BME280;8384;47.996;7.786;2023-05-13T01:27:37;98634.63;;;9.12;100.00
16544;BME280;8384;47.996;7.786;2023-05-13T01:30:03;98635.69;;;9.33;100.00
16544;BME280;8384;47.996;7.786;2023-05-13T01:32:28;98639.31;;;9.39;100.00
16544;BME280;8384;47.996;7.786;2023-05-13T01:34:55;98655.00;;;9.81;100.00
16544;BME280;8384;47.996;7.786;2023-05-13T01:37:20;98665.41;;;9.84;100.00
16544;BME280;8384;47.996;7.786;2023-05-13T01:39:46;98613.13;;;9.43;100.00
16544;BME280;8384;47.996;7.786;2023-05-13T01:42:12;98663.41;;;9.74;100.00
16544;BME280;8384;47.996;7.786;2023-05-13T01:44:38;98665.72;;;9.60;100.00
16544;BME280;8384;47.996;7.786;2023-05-13T01:47:03;98643.47;;;9.47;100.00
16544;BME280;8384;47.996;7.786;2023-05-13T01:49:28;98665.28;;;10.01;100.00
16544;BME280;8384;47.996;7.786;2023-05-13T01:51:54;98667.50;;;10.04;100.00
16544;BME280;8384;47.996;7.786;2023-05-13T01:54:19;98678.97;;;10.06;100.00
16544;BME280;8384;47.996;7.786;2023-05-13T01:56:44;98658.06;;;9.90;100.00
16544;BME280;8384;47.996;7.786;2023-05-13T01:59:10;98676.94;;;9.92;100.00
16544;BME280;8384;47.996;7.786;2023-05-13T02:01:35;98647.22;;;9.95;100.00
16544;BME280;8384;47.996;7.786;2023-05-13T02:04:01;98686.06;;;10.08;100.00
16544;BME280;8384;47.996;7.786;2023-05-13T02:06:26;98677.47;;;9.88;100.00
16544;BME280;8384;47.996;7.786;2023-05-13T02:08:52;98678.72;;;9.81;100.00
16544;BME280;8384;47.996;7.786;2023-05-13T02:11:17;98691.13;;;9.88;100.00
16544;BME280;8384;47.996;7.786;2023-05-13T02:13:42;98664.78;;;9.77;100.00
16544;BME280;8384;47.996;7.786;2023-05-13T02:16:09;98687.25;;;9.84;100.00
16544;BME280;8384;47.996;7.786;2023-05-13T02:18:35;98694.25;;;10.02;100.00
16544;BME280;8384;47.996;7.786;2023-05-13T02:21:00;98689.47;;;10.20;100.00
16544;BME280;8384;47.996;7.786;2023-05-13T02:23:25;98661.44;;;9.97;100.00
16544;BME280;8384;47.996;7.786;2023-05-13T02:25:50;98681.63;;;10.29;100.00
16544;BME280;8384;47.996;7.786;2023-05-13T02:28:16;98699.03;;;10.23;100.00
16544;BME280;8384;47.996;7.786;2023-05-13T02:30:41;98668.59;;;10.03;100.00
16544;BME280;8384;47.996;7.786;2023-05-13T02:33:06;98669.69;;;10.08;100.00
16544;BME280;8384;47.996;7.786;2023-05-13T02:35:32;98662.50;;;9.96;100.00
16544;BME280;8384;47.996;7.786;2023-05-13T02:37:57;98677.28;;;10.00;100.00
16544;BME280;8384;47.996;7.786;2023-05-13T02:40:23;98678.91;;;9.96;100.00
16544;BME280;8384;47.996;7.786;2023-05-13T02:42:48;98680.63;;;10.08;100.00
16544;BME280;8384;47.996;7.786;2023-05-13T02:45:14;98688.06;;;10.45;100.00
16544;BME280;8384;47.996;7.786;2023-05-13T02:47:39;98672.63;;;10.33;100.00
16544;BME280;8384;47.996;7.786;2023-05-13T02:50:06;98682.75;;;10.33;100.00
16544;BME280;8384;47.996;7.786;2023-05-13T02:52:32;98689.25;;;10.27;100.00
16544;BME280;8384;47.996;7.786;2023-05-13T02:55:00;98664.97;;;9.98;100.00
16544;BME280;8384;47.996;7.786;2023-05-13T02:57:25;98682.59;;;10.12;100.00
16544;BME280;8384;47.996;7.786;2023-05-13T02:59:51;98687.53;;;10.15;100.00
16544;BME280;8384;47.996;7.786;2023-05-13T03:02:16;98658.38;;;9.94;100.00
16544;BME280;8384;47.996;7.786;2023-05-13T03:04:41;98680.06;;;10.05;100.00
16544;BME280;8384;47.996;7.786;2023-05-13T03:07:06;98666.09;;;10.02;100.00
16544;BME280;8384;47.996;7.786;2023-05-13T03:09:32;98679.34;;;10.15;100.00
16544;BME280;8384;47.996;7.786;2023-05-13T03:11:59;98661.72;;;10.01;100.00
16544;BME280;8384;47.996;7.786;2023-05-13T03:14:24;98663.94;;;10.04;100.00
16544;BME280;8384;47.996;7.786;2023-05-13T03:16:49;98663.38;;;10.02;100.00
16544;BME280;8384;47.996;7.786;2023-05-13T03:19:15;98682.94;;;10.21;100.00
16544;BME280;8384;47.996;7.786;2023-05-13T03:21:40;98683.56;;;10.01;100.00
16544;BME280;8384;47.996;7.786;2023-05-13T03:24:05;98673.59;;;9.84;100.00
16544;BME280;8384;47.996;7.786;2023-05-13T03:26:31;98688.50;;;10.04;100.00
16544;BME280;8384;47.996;7.786;2023-05-13T03:28:56;98677.34;;;10.05;100.00
16544;BME280;8384;47.996;7.786;2023-05-13T03:31:21;98690.13;;;10.32;100.00
16544;BME280;8384;47.996;7.786;2023-05-13T03:33:47;98683.97;;;10.47;100.00
16544;BME280;8384;47.996;7.786;2023-05-13T03:36:13;98668.47;;;10.26;100.00
16544;BME280;8384;47.996;7.786;2023-05-13T03:38:38;98687.91;;;10.29;100.00
16544;BME280;8384;47.996;7.786;2023-05-13T03:41:04;98685.22;;;10.34;100.00
16544;BME280;8384;47.996;7.786;2023-05-13T03:43:29;98659.31;;;10.04;100.00
16544;BME280;8384;47.996;7.786;2023-05-13T03:45:54;98679.34;;;10.15;100.00
16544;BME280;8384;47.996;7.786;2023-05-13T03:48:20;98676.09;;;10.18;100.00
16544;BME280;8384;47.996;7.786;2023-05-13T03:50:45;98679.59;;;10.14;100.00
16544;BME280;8384;47.996;7.786;2023-05-13T03:53:10;98675.34;;;10.28;100.00
16544;BME280;8384;47.996;7.786;2023-05-13T03:55:36;98694.38;;;10.50;100.00
16544;BME280;8384;47.996;7.786;2023-05-13T03:58:10;98635.28;;;10.06;100.00
16544;BME280;8384;47.996;7.786;2023-05-13T04:00:36;98703.09;;;10.47;100.00
16544;BME280;8384;47.996;7.786;2023-05-13T04:03:01;98695.84;;;10.31;100.00
16544;BME280;8384;47.996;7.786;2023-05-13T04:05:26;98699.78;;;10.40;100.00
16544;BME280;8384;47.996;7.786;2023-05-13T04:07:52;98682.78;;;10.71;100.00
16544;BME280;8384;47.996;7.786;2023-05-13T04:10:17;98709.53;;;10.69;100.00
16544;BME280;8384;47.996;7.786;2023-05-13T04:12:42;98678.78;;;10.46;100.00
16544;BME280;8384;47.996;7.786;2023-05-13T04:15:08;98712.41;;;10.52;100.00
16544;BME280;8384;47.996;7.786;2023-05-13T04:17:33;98685.59;;;10.43;100.00
16544;BME280;8384;47.996;7.786;2023-05-13T04:19:58;98719.28;;;10.54;100.00
16544;BME280;8384;47.996;7.786;2023-05-13T04:22:23;98720.56;;;10.46;100.00
16544;BME280;8384;47.996;7.786;2023-05-13T04:24:49;98703.91;;;10.43;100.00
16544;BME280;8384;47.996;7.786;2023-05-13T04:27:20;98723.41;;;10.57;100.00
16544;BME280;8384;47.996;7.786;2023-05-13T04:29:45;98714.97;;;10.63;100.00
16544;BME280;8384;47.996;7.786;2023-05-13T04:32:10;98701.19;;;10.48;100.00
16544;BME280;8384;47.996;7.786;2023-05-13T04:34:39;98722.97;;;10.70;100.00
16544;BME280;8384;47.996;7.786;2023-05-13T04:37:05;98730.88;;;10.72;100.00
16544;BME280;8384;47.996;7.786;2023-05-13T04:39:30;98732.81;;;10.76;100.00
16544;BME280;8384;47.996;7.786;2023-05-13T04:41:55;98734.50;;;10.83;100.00
16544;BME280;8384;47.996;7.786;2023-05-13T04:44:21;98737.56;;;10.91;100.00
16544;BME280;8384;47.996;7.786;2023-05-13T04:46:46;98740.09;;;10.98;100.00
16544;BME280;8384;47.996;7.786;2023-05-13T04:49:11;98724.75;;;10.92;100.00
16544;BME280;8384;47.996;7.786;2023-05-13T04:51:36;98714.13;;;11.01;100.00
16544;BME280;8384;47.996;7.786;2023-05-13T04:54:02;98730.94;;;11.30;100.00
16544;BME280;8384;47.996;7.786;2023-05-13T04:56:27;98736.16;;;11.32;100.00
16544;BME280;8384;47.996;7.786;2023-05-13T04:58:52;98715.53;;;11.08;100.00
16544;BME280;8384;47.996;7.786;2023-05-13T05:01:18;98734.81;;;11.34;100.00
16544;BME280;8384;47.996;7.786;2023-05-13T05:03:43;98716.63;;;11.07;100.00
16544;BME280;8384;47.996;7.786;2023-05-13T05:06:08;98745.41;;;11.20;100.00
16544;BME280;8384;47.996;7.786;2023-05-13T05:08:33;98723.41;;;11.00;100.00
16544;BME280;8384;47.996;7.786;2023-05-13T05:10:59;98730.47;;;10.90;100.00
16544;BME280;8384;47.996;7.786;2023-05-13T05:13:25;98726.56;;;10.76;100.00
16544;BME280;8384;47.996;7.786;2023-05-13T05:15:51;98704.63;;;10.71;100.00
16544;BME280;8384;47.996;7.786;2023-05-13T05:18:16;98745.13;;;11.17;100.00
16544;BME280;8384;47.996;7.786;2023-05-13T05:20:41;98704.19;;;10.84;100.00
16544;BME280;8384;47.996;7.786;2023-05-13T05:23:06;98729.94;;;10.93;100.00
16544;BME280;8384;47.996;7.786;2023-05-13T05:25:34;98726.63;;;10.91;100.00
16544;BME280;8384;47.996;7.786;2023-05-13T05:27:59;98737.66;;;11.02;100.00
16544;BME280;8384;47.996;7.786;2023-05-13T05:30:25;98762.13;;;11.29;100.00
16544;BME280;8384;47.996;7.786;2023-05-13T05:32:50;98757.75;;;11.28;100.00
16544;BME280;8384;47.996;7.786;2023-05-13T05:35:15;98741.59;;;11.21;100.00
16544;BME280;8384;47.996;7.786;2023-05-13T05:37:43;98722.56;;;10.99;100.00
16544;BME280;8384;47.996;7.786;2023-05-13T05:40:09;98763.28;;;11.38;100.00
16544;BME280;8384;47.996;7.786;2023-05-13T05:42:34;98748.00;;;11.43;100.00
16544;BME280;8384;47.996;7.786;2023-05-13T05:45:00;98734.31;;;11.48;100.00
16544;BME280;8384;47.996;7.786;2023-05-13T05:47:25;98760.09;;;11.52;100.00
16544;BME280;8384;47.996;7.786;2023-05-13T05:49:50;98757.38;;;11.67;100.00
16544;BME280;8384;47.996;7.786;2023-05-13T05:52:16;98760.66;;;11.64;100.00
16544;BME280;8384;47.996;7.786;2023-05-13T05:54:41;98749.03;;;11.36;100.00
16544;BME280;8384;47.996;7.786;2023-05-13T05:57:06;98783.19;;;11.77;100.00
16544;BME280;8384;47.996;7.786;2023-05-13T05:59:32;98775.72;;;11.62;100.00
16544;BME280;8384;47.996;7.786;2023-05-13T06:01:57;98782.91;;;11.83;100.00
16544;BME280;8384;47.996;7.786;2023-05-13T06:04:22;98778.72;;;11.65;100.00
16544;BME280;8384;47.996;7.786;2023-05-13T06:06:48;98746.66;;;11.55;100.00
16544;BME280;8384;47.996;7.786;2023-05-13T06:09:14;98781.19;;;11.67;100.00
16544;BME280;8384;47.996;7.786;2023-05-13T06:11:39;98778.16;;;11.58;100.00
16544;BME280;8384;47.996;7.786;2023-05-13T06:14:04;98786.44;;;11.79;100.00
16544;BME280;8384;47.996;7.786;2023-05-13T06:16:30;98785.59;;;11.73;100.00
16544;BME280;8384;47.996;7.786;2023-05-13T06:18:55;98781.59;;;11.96;100.00
16544;BME280;8384;47.996;7.786;2023-05-13T06:21:20;98788.41;;;11.83;100.00
16544;BME280;8384;47.996;7.786;2023-05-13T06:23:46;98790.81;;;11.80;100.00
16544;BME280;8384;47.996;7.786;2023-05-13T06:26:11;98795.75;;;11.73;100.00
16544;BME280;8384;47.996;7.786;2023-05-13T06:28:36;98798.19;;;11.69;100.00
16544;BME280;8384;47.996;7.786;2023-05-13T06:31:01;98793.22;;;11.66;100.00
16544;BME280;8384;47.996;7.786;2023-05-13T06:33:27;98794.03;;;11.61;100.00
16544;BME280;8384;47.996;7.786;2023-05-13T06:35:52;98782.22;;;11.50;100.00
16544;BME280;8384;47.996;7.786;2023-05-13T06:38:17;98755.34;;;11.37;100.00
16544;BME280;8384;47.996;7.786;2023-05-13T06:40:43;98780.91;;;11.63;100.00
16544;BME280;8384;47.996;7.786;2023-05-13T06:43:10;98783.44;;;11.80;100.00
16544;BME280;8384;47.996;7.786;2023-05-13T06:45:36;98765.31;;;11.69;100.00
16544;BME280;8384;47.996;7.786;2023-05-13T06:48:02;98779.66;;;11.97;100.00
16544;BME280;8384;47.996;7.786;2023-05-13T06:50:27;98753.69;;;12.10;98.73
16544;BME280;8384;47.996;7.786;2023-05-13T06:52:53;98778.94;;;12.33;97.95
16544;BME280;8384;47.996;7.786;2023-05-13T06:55:18;98755.00;;;11.92;100.00
16544;BME280;8384;47.996;7.786;2023-05-13T06:57:44;98781.09;;;12.15;100.00
16544;BME280;8384;47.996;7.786;2023-05-13T07:00:11;98781.66;;;12.17;100.00
16544;BME280;8384;47.996;7.786;2023-05-13T07:02:37;98781.16;;;12.30;100.00
16544;BME280;8384;47.996;7.786;2023-05-13T07:05:03;98743.28;;;12.12;99.18
16544;BME280;8384;47.996;7.786;2023-05-13T07:07:29;98788.28;;;12.42;99.23
16544;BME280;8384;47.996;7.786;2023-05-13T07:12:22;98777.31;;;12.68;92.53
16544;BME280;8384;47.996;7.786;2023-05-13T07:14:47;98785.56;;;12.57;93.74
16544;BME280;8384;47.996;7.786;2023-05-13T07:17:13;98801.41;;;12.35;96.28
16544;BME280;8384;47.996;7.786;2023-05-13T07:19:38;98780.84;;;12.22;97.13
16544;BME280;8384;47.996;7.786;2023-05-13T07:22:03;98799.78;;;12.28;97.97
16544;BME280;8384;47.996;7.786;2023-05-13T07:24:29;98801.44;;;12.40;97.19
16544;BME280;8384;47.996;7.786;2023-05-13T07:26:54;98793.19;;;12.35;95.73
16544;BME280;8384;47.996;7.786;2023-05-13T07:29:19;98796.22;;;12.38;96.66
16544;BME280;8384;47.996;7.786;2023-05-13T07:31:44;98795.41;;;12.48;95.42
16544;BME280;8384;47.996;7.786;2023-05-13T07:34:10;98783.06;;;12.30;97.30
16544;BME280;8384;47.996;7.786;2023-05-13T07:36:35;98780.88;;;12.42;96.52
16544;BME280;8384;47.996;7.786;2023-05-13T07:39:00;98802.53;;;12.44;97.14
16544;BME280;8384;47.996;7.786;2023-05-13T07:41:26;98793.47;;;12.33;98.84
16544;BME280;8384;47.996;7.786;2023-05-13T07:43:51;98789.91;;;12.33;98.43
16544;BME280;8384;47.996;7.786;2023-05-13T07:46:17;98802.53;;;12.39;98.77
16544;BME280;8384;47.996;7.786;2023-05-13T07:48:42;98777.28;;;12.21;99.69
16544;BME280;8384;47.996;7.786;2023-05-13T07:51:08;98799.25;;;12.52;99.41
16544;BME280;8384;47.996;7.786;2023-05-13T07:53:34;98797.06;;;12.49;99.82
16544;BME280;8384;47.996;7.786;2023-05-13T07:56:00;98786.88;;;12.24;100.00
16544;BME280;8384;47.996;7.786;2023-05-13T07:58:26;98788.81;;;12.28;100.00
16544;BME280;8384;47.996;7.786;2023-05-13T08:00:51;98800.84;;;12.17;100.00
16544;BME280;8384;47.996;7.786;2023-05-13T08:03:16;98800.31;;;12.20;100.00
16544;BME280;8384;47.996;7.786;2023-05-13T08:05:41;98808.00;;;12.34;100.00
16544;BME280;8384;47.996;7.786;2023-05-13T08:08:07;98802.25;;;12.51;99.43
16544;BME280;8384;47.996;7.786;2023-05-13T08:10:32;98808.03;;;12.59;97.22
16544;BME280;8384;47.996;7.786;2023-05-13T08:12:57;98798.16;;;12.48;97.62
16544;BME280;8384;47.996;7.786;2023-05-13T08:15:25;98796.50;;;12.47;98.16
16544;BME280;8384;47.996;7.786;2023-05-13T08:17:50;98796.22;;;12.38;98.28
16544;BME280;8384;47.996;7.786;2023-05-13T08:20:18;98805.00;;;12.71;96.80
16544;BME280;8384;47.996;7.786;2023-05-13T08:22:43;98804.75;;;12.83;96.25
16544;BME280;8384;47.996;7.786;2023-05-13T08:25:08;98801.72;;;12.85;94.84
16544;BME280;8384;47.996;7.786;2023-05-13T08:27:35;98802.00;;;13.04;93.73
16544;BME280;8384;47.996;7.786;2023-05-13T08:30:00;98793.75;;;12.99;92.88
16544;BME280;8384;47.996;7.786;2023-05-13T08:32:26;98803.59;;;13.26;93.55
16544;BME280;8384;47.996;7.786;2023-05-13T08:34:51;98805.75;;;13.49;91.09
16544;BME280;8384;47.996;7.786;2023-05-13T08:37:17;98791.19;;;13.59;89.73
16544;BME280;8384;47.996;7.786;2023-05-13T08:39:42;98805.69;;;13.65;88.07
16544;BME280;8384;47.996;7.786;2023-05-13T08:42:09;98816.66;;;13.80;87.49
16544;BME280;8384;47.996;7.786;2023-05-13T08:44:38;98806.72;;;13.90;87.00
16544;BME280;8384;47.996;7.786;2023-05-13T08:47:28;98820.03;;;14.22;84.67
16544;BME280;8384;47.996;7.786;2023-05-13T08:49:56;98820.47;;;14.40;83.95
16544;BME280;8384;47.996;7.786;2023-05-13T08:52:22;98811.34;;;14.45;83.32
16544;BME280;8384;47.996;7.786;2023-05-13T08:54:47;98819.28;;;14.51;82.11
16544;BME280;8384;47.996;7.786;2023-05-13T08:57:13;98816.72;;;14.20;84.16
16544;BME280;8384;47.996;7.786;2023-05-13T08:59:38;98806.09;;;14.03;83.76
16544;BME280;8384;47.996;7.786;2023-05-13T09:02:04;98798.72;;;13.99;85.77
16544;BME280;8384;47.996;7.786;2023-05-13T09:04:30;98805.88;;;13.89;85.89
16544;BME280;8384;47.996;7.786;2023-05-13T09:06:56;98819.53;;;14.05;85.15
16544;BME280;8384;47.996;7.786;2023-05-13T09:09:22;98824.22;;;14.04;84.92
16544;BME280;8384;47.996;7.786;2023-05-13T09:11:48;98821.34;;;14.30;83.42
16544;BME280;8384;47.996;7.786;2023-05-13T09:14:17;98827.47;;;14.17;83.87
16544;BME280;8384;47.996;7.786;2023-05-13T09:16:43;98825.19;;;14.34;82.40
16544;BME280;8384;47.996;7.786;2023-05-13T09:19:08;98823.06;;;14.61;81.12
16544;BME280;8384;47.996;7.786;2023-05-13T09:21:35;98821.22;;;14.91;80.84
16544;BME280;8384;47.996;7.786;2023-05-13T09:24:13;98821.56;;;15.13;80.41
16544;BME280;8384;47.996;7.786;2023-05-13T09:26:43;98812.63;;;15.27;77.93
16544;BME280;8384;47.996;7.786;2023-05-13T09:29:22;98821.13;;;15.01;76.15
16544;BME280;8384;47.996;7.786;2023-05-13T09:31:53;98825.38;;;15.18;76.55
16544;BME280;8384;47.996;7.786;2023-05-13T09:34:29;98826.97;;;15.24;77.75
16544;BME280;8384;47.996;7.786;2023-05-13T09:39:21;98826.22;;;14.83;79.19
16544;BME280;8384;47.996;7.786;2023-05-13T09:41:46;98826.34;;;15.03;79.68
16544;BME280;8384;47.996;7.786;2023-05-13T09:44:12;98827.78;;;14.95;78.03
16544;BME280;8384;47.996;7.786;2023-05-13T09:46:37;98815.38;;;14.97;78.57
16544;BME280;8384;47.996;7.786;2023-05-13T09:49:02;98824.59;;;15.41;77.03
16544;BME280;8384;47.996;7.786;2023-05-13T09:51:28;98818.47;;;14.91;77.43
16544;BME280;8384;47.996;7.786;2023-05-13T09:54:05;98804.31;;;15.03;79.86
16544;BME280;8384;47.996;7.786;2023-05-13T09:56:33;98830.53;;;15.24;77.13
16544;BME280;8384;47.996;7.786;2023-05-13T09:58:59;98830.84;;;15.23;77.79
16544;BME280;8384;47.996;7.786;2023-05-13T10:01:26;98829.78;;;15.19;78.46
16544;BME280;8384;47.996;7.786;2023-05-13T10:03:54;98823.25;;;15.39;77.43
16544;BME280;8384;47.996;7.786;2023-05-13T10:06:22;98792.84;;;14.95;76.64
16544;BME280;8384;47.996;7.786;2023-05-13T10:08:49;98831.13;;;14.92;79.04
16544;BME280;8384;47.996;7.786;2023-05-13T10:11:16;98825.41;;;14.38;80.82
16544;BME280;8384;47.996;7.786;2023-05-13T10:13:48;98807.88;;;14.74;80.87
16544;BME280;8384;47.996;7.786;2023-05-13T10:16:14;98793.16;;;14.89;78.60
16544;BME280;8384;47.996;7.786;2023-05-13T10:18:40;98825.28;;;15.28;76.74
16544;BME280;8384;47.996;7.786;2023-05-13T10:21:06;98817.63;;;15.25;76.07
16544;BME280;8384;47.996;7.786;2023-05-13T10:23:31;98827.13;;;15.38;77.29
16544;BME280;8384;47.996;7.786;2023-05-13T10:25:58;98804.59;;;15.30;73.83
16544;BME280;8384;47.996;7.786;2023-05-13T10:28:24;98819.75;;;15.33;73.96
16544;BME280;8384;47.996;7.786;2023-05-13T10:30:49;98801.81;;;15.36;73.15
16544;BME280;8384;47.996;7.786;2023-05-13T10:33:18;98817.53;;;15.35;73.44
16544;BME280;8384;47.996;7.786;2023-05-13T10:36:06;98825.84;;;15.54;72.86
16544;BME280;8384;47.996;7.786;2023-05-13T10:39:01;98820.81;;;15.62;72.78
16544;BME280;8384;47.996;7.786;2023-05-13T10:44:18;98826.66;;;16.03;72.12
16544;BME280;8384;47.996;7.786;2023-05-13T10:46:46;98805.84;;;15.92;69.99
16544;BME280;8384;47.996;7.786;2023-05-13T10:49:15;98807.88;;;15.81;69.97
16544;BME280;8384;47.996;7.786;2023-05-13T10:51:44;98816.00;;;15.97;68.05
16544;BME280;8384;47.996;7.786;2023-05-13T10:54:22;98813.72;;;15.80;67.89
16544;BME280;8384;47.996;7.786;2023-05-13T10:56:57;98828.56;;;16.27;66.92
16544;BME280;8384;47.996;7.786;2023-05-13T10:59:23;98814.72;;;16.52;64.62
16544;BME280;8384;47.996;7.786;2023-05-13T11:01:49;98790.75;;;16.66;64.29
16544;BME280;8384;47.996;7.786;2023-05-13T11:04:16;98813.44;;;17.29;65.71
16544;BME280;8384;47.996;7.786;2023-05-13T11:06:46;98816.44;;;17.47;58.92
16544;BME280;8384;47.996;7.786;2023-05-13T11:09:14;98812.03;;;18.16;58.58
16544;BME280;8384;47.996;7.786;2023-05-13T11:11:39;98808.25;;;17.69;59.65
16544;BME280;8384;47.996;7.786;2023-05-13T11:14:13;98816.53;;;17.69;59.87
16544;BME280;8384;47.996;7.786;2023-05-13T11:16:44;98799.75;;;17.80;60.01
16544;BME280;8384;47.996;7.786;2023-05-13T11:19:22;98801.91;;;17.41;63.57
16544;BME280;8384;47.996;7.786;2023-05-13T11:21:53;98814.91;;;17.96;65.01
16544;BME280;8384;47.996;7.786;2023-05-13T11:24:20;98817.66;;;18.24;64.87
16544;BME280;8384;47.996;7.786;2023-05-13T11:26:58;98831.22;;;18.49;62.63
16544;BME280;8384;47.996;7.786;2023-05-13T11:29:36;98805.75;;;18.38;59.53
16544;BME280;8384;47.996;7.786;2023-05-13T11:32:04;98813.03;;;17.22;62.45
16544;BME280;8384;47.996;7.786;2023-05-13T11:34:30;98813.41;;;16.63;66.66
16544;BME280;8384;47.996;7.786;2023-05-13T11:39:27;98803.75;;;16.46;71.04
16544;BME280;8384;47.996;7.786;2023-05-13T11:41:53;98808.66;;;16.30;68.68
16544;BME280;8384;47.996;7.786;2023-05-13T11:44:22;98804.03;;;16.07;69.85
16544;BME280;8384;47.996;7.786;2023-05-13T11:46:55;98803.28;;;16.39;73.42
16544;BME280;8384;47.996;7.786;2023-05-13T11:52:01;98805.66;;;17.17;67.42
16544;BME280;8384;47.996;7.786;2023-05-13T11:54:26;98806.81;;;17.30;67.64
16544;BME280;8384;47.996;7.786;2023-05-13T11:56:52;98779.56;;;17.37;63.80
16544;BME280;8384;47.996;7.786;2023-05-13T11:59:17;98780.09;;;17.39;63.56
16544;BME280;8384;47.996;7.786;2023-05-13T12:01:42;98806.38;;;17.23;63.65
16544;BME280;8384;47.996;7.786;2023-05-13T12:04:07;98805.69;;;17.31;66.53
16544;BME280;8384;47.996;7.786;2023-05-13T12:06:33;98801.31;;;17.58;60.97
16544;BME280;8384;47.996;7.786;2023-05-13T12:09:05;98801.06;;;17.82;64.12
16544;BME280;8384;47.996;7.786;2023-05-13T12:11:31;98802.03;;;18.06;63.83
16544;BME280;8384;47.996;7.786;2023-05-13T12:13:57;98815.16;;;18.37;61.14
16544;BME280;8384;47.996;7.786;2023-05-13T12:16:23;98811.13;;;18.43;61.40
16544;BME280;8384;47.996;7.786;2023-05-13T12:18:58;98825.13;;;18.38;55.68
16544;BME280;8384;47.996;7.786;2023-05-13T12:21:23;98826.00;;;18.70;54.73
16544;BME280;8384;47.996;7.786;2023-05-13T12:23:48;98816.72;;;18.66;53.00
16544;BME280;8384;47.996;7.786;2023-05-13T12:26:13;98807.34;;;18.53;52.98
16544;BME280;8384;47.996;7.786;2023-05-13T12:28:39;98822.88;;;18.63;53.90
16544;BME280;8384;47.996;7.786;2023-05-13T12:31:04;98813.63;;;18.67;54.20
16544;BME280;8384;47.996;7.786;2023-05-13T12:33:40;98794.56;;;18.66;55.37
16544;BME280;8384;47.996;7.786;2023-05-13T12:36:35;98820.19;;;18.71;54.08
16544;BME280;8384;47.996;7.786;2023-05-13T12:39:09;98814.03;;;18.97;53.51
16544;BME280;8384;47.996;7.786;2023-05-13T12:41:36;98819.22;;;19.22;53.45
16544;BME280;8384;47.996;7.786;2023-05-13T12:46:28;98803.47;;;19.31;49.26
16544;BME280;8384;47.996;7.786;2023-05-13T12:48:55;98823.53;;;19.37;49.70
16544;BME280;8384;47.996;7.786;2023-05-13T12:51:21;98820.00;;;19.13;48.60
16544;BME280;8384;47.996;7.786;2023-05-13T12:53:46;98796.91;;;18.72;48.56
16544;BME280;8384;47.996;7.786;2023-05-13T12:56:12;98818.47;;;18.84;50.80
16544;BME280;8384;47.996;7.786;2023-05-13T12:58:37;98797.81;;;18.68;49.26
16544;BME280;8384;47.996;7.786;2023-05-13T13:01:02;98813.19;;;18.74;49.11
16544;BME280;8384;47.996;7.786;2023-05-13T13:03:28;98824.34;;;18.46;50.90
16544;BME280;8384;47.996;7.786;2023-05-13T13:05:53;98824.94;;;18.57;49.72
16544;BME280;8384;47.996;7.786;2023-05-13T13:08:19;98805.34;;;18.31;50.45
16544;BME280;8384;47.996;7.786;2023-05-13T13:10:44;98757.88;;;17.59;51.74
16544;BME280;8384;47.996;7.786;2023-05-13T13:13:09;98826.81;;;18.48;51.67
16544;BME280;8384;47.996;7.786;2023-05-13T13:15:35;98786.59;;;18.27;51.30
16544;BME280;8384;47.996;7.786;2023-05-13T13:18:00;98822.38;;;18.61;49.26
16544;BME280;8384;47.996;7.786;2023-05-13T13:20:25;98827.66;;;18.71;49.48